KSFF/SFF METAR and TAF weather

Enter ICAO airport designator
Station Type Date Time Source
KSFF METAR 2021/09/23 22:53 UTC NOAA

KSFF 232253Z 29005KT 10SM CLR 22/05 A3022 RMK AO2 SLP226 T02220050


Station Type Date Time Source
KSFF Decoded METAR 2021/09/23 22:53 UTC NOAA

FELTS FIELD, WA, United States (KSFF) 47-41N 117-19W 609M
Sep 23, 2021 - 06:53 PM EDT / 2021.09.23 2253 UTC
Wind: from the WNW (290 degrees) at 6 MPH (5 KT):0
Visibility: 10 mile(s):0
Sky conditions: clear
Temperature: 72.0 F (22.2 C)
Dew Point: 41.0 F (5.0 C)
Relative Humidity: 32%
Pressure (altimeter): 30.22 in. Hg (1023 hPa)
ob: KSFF 232253Z 29005KT 10SM CLR 22/05 A3022 RMK AO2 SLP226 T02220050
cycle: 23

Station Type Date Time Source
KSFF TAF 2021/09/23 18:33 UTC NOAA

TAF KSFF 231730Z 2318/2418 VRB03KT P6SM FEW070 SCT200

Example: see airport list